Airfield :







YOU CAN JOIN US ON...

 
LOGIN :

Register | Disclaimer

   EN    FR    IT 

 









Legend :    VFR   Marginal VFR   IFR   Intensive IFR   Very Intensive IFR
Visi :
Ceiling :
>= 8 km
>= 3000ft
5 to 8 km
1000 to 3000 ft
1500m to 5 km
500 to 1000 ft
800 to 1500m
200 to 500 ft
< 800m
< 200 ft
Symbols :   Thunderstorms  Fog  Heavy snow  Heavy precipitations  Wind > 20 kt






- Airport Elevation : 215 ft
- IATA code : MSS


KMSS - Massena International Richards Field

CURRENT METAR :
  • 261953Z AUTO 21010KT 7SM -RA BKN010 OVC015 01/M01 A2958 RMK AO2 SLP020 P0001 T00111006

EXPIRED METARs :
  • 261853Z AUTO 22012G18KT 10SM -RA OVC012 02/M01 A2960 RMK AO2 UPB06E18 SLP027 P0000 T00171006
  • 261753Z AUTO 22011KT 10SM -RA OVC012 02/M01 A2962 RMK AO2 RAB15E23B43UPB23E43 SLP034 P0000 60000 T00171006 10022 20011 58017

TAF KMSS
Valid from the 26 at 18:00 until the 27 at 18:00 UTC


261734Z 2618/2718 22014KT 5SM -SHRASN BR OVC012
FM262300 23010KT 2SM -SHSN BR OVC007
FM271100 26007KT P6SM VCSH OVC009
FM271700 27008KT P6SM OVC012



MET'MAP, your aeronautical weather chart ! - Copyright ORBIFLY December 2007 - Disclaimer

ORBIFLY MET'MAP TEAM :

Programming & Development : Alexandra Zaïnal
Concept & original design : Baudouin d'Aumeries
Assistance for programming : Marc-Olivier Méhu
Technical & hardware support : Manuel Goepfert

Contact : metmap@orbifly.com




SOURCES & CREDITS :

   NOAA